createdAt,value
2017-04-29T00:00:33.031Z,25.68
2017-04-29T00:01:32.989Z,25.67
2017-04-29T00:02:32.993Z,25.57
2017-04-29T00:03:32.999Z,25.57
2017-04-29T00:04:33.085Z,25.59
2017-04-29T00:05:33.008Z,25.38
2017-04-29T00:06:33.014Z,25.39
2017-04-29T00:07:33.018Z,25.49
2017-04-29T00:08:33.026Z,25.49
2017-04-29T00:09:32.718Z,25.29
2017-04-29T00:10:33.036Z,25.38
2017-04-29T00:11:33.039Z,25.49
2017-04-29T00:12:33.094Z,25.39
2017-04-29T00:13:33.051Z,25.49
2017-04-29T00:14:32.794Z,25.2
2017-04-29T00:15:33.059Z,25.2
2017-04-29T00:16:33.067Z,25.1
2017-04-29T00:17:33.073Z,25.39
2017-04-29T00:18:32.763Z,25.29
2017-04-29T00:19:32.771Z,25.39
2017-04-29T00:20:33.090Z,25.09
2017-04-29T00:21:33.091Z,25.1
2017-04-29T00:22:33.098Z,25.2
2017-04-29T00:23:33.105Z,25.29
2017-04-29T00:24:33.105Z,25.29
2017-04-29T00:25:33.114Z,25.29
2017-04-29T00:26:33.171Z,25.1
2017-04-29T00:27:33.173Z,25.39
2017-04-29T00:28:33.132Z,25.1
2017-04-29T00:29:33.137Z,25.2
2017-04-29T00:30:32.835Z,25.2
2017-04-29T00:31:33.195Z,25.1
2017-04-29T00:32:33.197Z,25.39
2017-04-29T00:33:33.154Z,25.01
2017-04-29T00:34:33.161Z,25.2
2017-04-29T00:35:33.166Z,25.2
2017-04-29T00:36:33.170Z,25.2
2017-04-29T00:37:33.187Z,25.2
2017-04-29T00:38:33.184Z,25.1
2017-04-29T00:39:33.185Z,25.2
2017-04-29T00:40:32.884Z,25.28
2017-04-29T00:41:33.196Z,25.09
2017-04-29T00:42:33.203Z,25.39
2017-04-29T00:43:32.948Z,25.29
2017-04-29T00:44:32.903Z,25.29
2017-04-29T00:45:33.218Z,25.39
2017-04-29T00:46:33.223Z,25.28
2017-04-29T00:47:33.232Z,25.29
2017-04-29T00:48:32.929Z,25.38
2017-04-29T00:49:33.242Z,25.29
2017-04-29T00:50:33.344Z,25.28
2017-04-29T00:51:33.300Z,25.29
2017-04-29T00:52:33.259Z,25.19
2017-04-29T00:53:32.949Z,25.1
2017-04-29T00:54:33.267Z,25.09
2017-04-29T00:55:33.274Z,25.29
2017-04-29T00:56:32.968Z,25.01
2017-04-29T00:57:33.286Z,25.29
2017-04-29T00:58:33.338Z,25.29
2017-04-29T00:59:33.295Z,25.29
2017-04-29T01:00:33.298Z,25.01
2017-04-29T01:01:33.306Z,25.1
2017-04-29T01:02:33.308Z,25.28
2017-04-29T01:03:33.317Z,25.19
2017-04-29T01:04:33.058Z,25.39
2017-04-29T01:05:33.326Z,25.29
2017-04-29T01:06:33.330Z,25.28
2017-04-29T01:07:33.369Z,25.2
2017-04-29T01:08:33.031Z,25.29
2017-04-29T01:09:33.347Z,25.49
2017-04-29T01:10:33.041Z,25.49
2017-04-29T01:11:33.405Z,25.39
2017-04-29T01:12:33.359Z,25.49
2017-04-29T01:13:33.419Z,25.49
2017-04-29T01:14:33.471Z,25.1
2017-04-29T01:15:33.066Z,25.49
2017-04-29T01:16:33.431Z,25.59
2017-04-29T01:17:33.388Z,25.49
2017-04-29T01:18:33.133Z,25.1
2017-04-29T01:19:33.448Z,25.1
2017-04-29T01:20:33.454Z,25.01
2017-04-29T01:21:33.411Z,25.2
2017-04-29T01:22:33.463Z,25.01
2017-04-29T01:23:33.431Z,25.01
2017-04-29T01:24:33.427Z,25.49
2017-04-29T01:25:33.478Z,25.2
2017-04-29T01:26:33.438Z,25.59
2017-04-29T01:27:33.440Z,25.2
2017-04-29T01:28:33.137Z,25.2
2017-04-29T01:29:33.453Z,25.01
2017-04-29T01:30:33.456Z,25.1
2017-04-29T01:31:33.201Z,25.2
2017-04-29T01:32:33.517Z,25.1
2017-04-29T01:33:33.473Z,25.1
2017-04-29T01:34:33.485Z,25.01
2017-04-29T01:35:33.532Z,25.1
2017-04-29T01:36:33.490Z,25.09
2017-04-29T01:37:33.493Z,25.1
2017-04-29T01:38:33.499Z,25.49
2017-04-29T01:39:33.506Z,25.49
2017-04-29T01:40:33.200Z,25.49
2017-04-29T01:41:33.255Z,25.48
2017-04-29T01:42:33.524Z,25.39
2017-04-29T01:43:33.527Z,24.99
2017-04-29T01:44:33.529Z,25.1
2017-04-29T01:45:33.535Z,25.2
2017-04-29T01:46:33.593Z,25.09
2017-04-29T01:47:33.548Z,25.09
2017-04-29T01:48:33.553Z,25.48
2017-04-29T01:49:33.560Z,25.1
2017-04-29T01:50:33.563Z,24.99
2017-04-29T01:51:33.587Z,25.09
2017-04-29T01:52:33.576Z,25.1
2017-04-29T01:53:33.581Z,25.1
2017-04-29T01:54:33.585Z,25.01
2017-04-29T01:55:33.327Z,25.1
2017-04-29T01:56:33.594Z,24.81
2017-04-29T01:57:33.600Z,25.01
2017-04-29T01:58:33.631Z,24.91
2017-04-29T01:59:33.615Z,24.81
2017-04-29T02:00:33.615Z,24.81
2017-04-29T02:01:33.311Z,24.91
2017-04-29T02:02:33.626Z,25.29
2017-04-29T02:03:33.325Z,25.1
2017-04-29T02:04:33.688Z,24.91
2017-04-29T02:05:33.643Z,24.91
2017-04-29T02:06:33.649Z,24.91
2017-04-29T02:07:33.345Z,24.91
2017-04-29T02:08:33.657Z,24.91
2017-04-29T02:09:33.355Z,25.01
2017-04-29T02:10:33.718Z,25.01
2017-04-29T02:11:33.679Z,24.81
2017-04-29T02:12:33.682Z,24.62
2017-04-29T02:13:33.687Z,25.01
2017-04-29T02:14:33.380Z,24.91
2017-04-29T02:15:33.697Z,24.81
2017-04-29T02:16:33.391Z,24.81
2017-04-29T02:17:33.704Z,24.72
2017-04-29T02:18:33.715Z,24.72
2017-04-29T02:19:33.718Z,24.81
2017-04-29T02:20:33.728Z,24.81
2017-04-29T02:21:33.775Z,24.52
2017-04-29T02:22:33.733Z,24.72
2017-04-29T02:23:33.739Z,24.52
2017-04-29T02:24:33.742Z,24.52
2017-04-29T02:25:33.487Z,24.52
2017-04-29T02:26:33.752Z,24.43
2017-04-29T02:27:33.817Z,24.62
2017-04-29T02:28:33.455Z,24.62
2017-04-29T02:29:33.771Z,24.62
2017-04-29T02:30:33.519Z,24.62
2017-04-29T02:31:33.472Z,24.62
2017-04-29T02:32:33.784Z,24.81
2017-04-29T02:33:33.478Z,24.43
2017-04-29T02:34:33.797Z,24.33
2017-04-29T02:35:33.800Z,24.52
2017-04-29T02:36:33.808Z,24.62
2017-04-29T02:37:33.862Z,24.52
2017-04-29T02:38:33.819Z,24.81
2017-04-29T02:39:34.877Z,24.52
2017-04-29T02:40:33.832Z,24.62
2017-04-29T02:41:33.834Z,24.62
2017-04-29T02:42:33.841Z,24.52
2017-04-29T02:43:33.846Z,24.62
2017-04-29T02:44:33.854Z,24.52
2017-04-29T02:45:33.905Z,24.43
2017-04-29T02:46:33.911Z,24.52
2017-04-29T02:47:33.873Z,24.14
2017-04-29T02:48:33.610Z,24.52
2017-04-29T02:49:33.880Z,24.23
2017-04-29T02:50:33.881Z,24.43
2017-04-29T02:51:33.578Z,24.52
2017-04-29T02:52:33.587Z,24.43
2017-04-29T02:53:33.900Z,24.43
2017-04-29T02:54:33.904Z,24.14
2017-04-29T02:55:33.907Z,24.24
2017-04-29T02:56:33.918Z,24.33
2017-04-29T02:57:33.918Z,24.23
2017-04-29T02:58:33.929Z,24.23
2017-04-29T02:59:33.929Z,24.14
2017-04-29T03:00:33.939Z,24.33
2017-04-29T03:01:33.630Z,24.23
2017-04-29T03:02:33.947Z,24.33
2017-04-29T03:03:33.956Z,24.43
2017-04-29T03:04:33.955Z,24.43
2017-04-29T03:05:33.968Z,24.23
2017-04-29T03:06:33.655Z,24.14
2017-04-29T03:07:33.975Z,24.23
2017-04-29T03:08:33.978Z,24.14
2017-04-29T03:09:34.034Z,24.23
2017-04-29T03:10:33.989Z,24.23
2017-04-29T03:11:33.681Z,24.33
2017-04-29T03:12:33.998Z,24.44
2017-04-29T03:13:34.014Z,24.43
2017-04-29T03:14:34.009Z,24.43
2017-04-29T03:15:33.703Z,24.43
2017-04-29T03:16:34.021Z,24.04
2017-04-29T03:17:34.106Z,24.23
2017-04-29T03:18:34.032Z,24.23
2017-04-29T03:19:34.070Z,24.33
2017-04-29T03:20:34.042Z,24.52
2017-04-29T03:21:34.098Z,24.43
2017-04-29T03:22:34.104Z,24.52
2017-04-29T03:23:33.749Z,24.23
2017-04-29T03:24:34.066Z,24.34
2017-04-29T03:25:34.068Z,24.44
2017-04-29T03:26:34.075Z,24.33
2017-04-29T03:27:34.078Z,23.85
2017-04-29T03:28:34.085Z,24.33
2017-04-29T03:29:34.092Z,24.43
2017-04-29T03:30:33.784Z,24.05
2017-04-29T03:31:33.789Z,24.15
2017-04-29T03:32:34.109Z,24.04
2017-04-29T03:33:33.808Z,24.04
2017-04-29T03:34:33.807Z,24.04
2017-04-29T03:35:33.812Z,24.04
2017-04-29T03:36:34.135Z,24.14
2017-04-29T03:37:33.821Z,24.04
2017-04-29T03:38:34.143Z,23.94
2017-04-29T03:39:34.145Z,23.85
2017-04-29T03:40:34.150Z,24.04
2017-04-29T03:41:34.153Z,24.04
2017-04-29T03:42:34.160Z,24.23
2017-04-29T03:43:34.168Z,24.33
2017-04-29T03:44:33.862Z,24.04
2017-04-29T03:45:34.178Z,24.04
2017-04-29T03:46:34.182Z,24.04
2017-04-29T03:47:34.188Z,24.52
2017-04-29T03:48:34.199Z,24.23
2017-04-29T03:49:34.198Z,24.44
2017-04-29T03:50:33.890Z,24.34
2017-04-29T03:51:34.210Z,24.34
2017-04-29T03:52:34.211Z,24.43
2017-04-29T03:53:34.223Z,24.33
2017-04-29T03:54:34.224Z,24.34
2017-04-29T03:55:34.230Z,24.34
2017-04-29T03:56:34.238Z,24.34
2017-04-29T03:57:34.242Z,24.34
2017-04-29T03:58:34.297Z,23.96
2017-04-29T03:59:34.306Z,23.86
2017-04-29T04:00:34.256Z,23.96
2017-04-29T04:01:34.264Z,23.86
2017-04-29T04:02:34.320Z,23.86
2017-04-29T04:03:34.278Z,24.05
2017-04-29T04:04:34.280Z,24.05
2017-04-29T04:05:34.285Z,24.05
2017-04-29T04:06:34.290Z,24.05
2017-04-29T04:07:34.306Z,24.24
2017-04-29T04:08:34.302Z,23.96
2017-04-29T04:09:34.304Z,23.96
2017-04-29T04:10:34.312Z,24.05
2017-04-29T04:11:34.109Z,24.05
2017-04-29T04:12:34.323Z,24.05
2017-04-29T04:13:34.328Z,23.96
2017-04-29T04:14:34.334Z,23.96
2017-04-29T04:15:34.343Z,23.96
2017-04-29T04:16:34.347Z,24.15
2017-04-29T04:17:34.350Z,24.05
2017-04-29T04:18:34.405Z,23.96
2017-04-29T04:19:34.050Z,23.86
2017-04-29T04:20:34.365Z,24.24
2017-04-29T04:21:34.058Z,24.43
2017-04-29T04:22:34.422Z,24.52
2017-04-29T04:23:34.069Z,24.05
2017-04-29T04:24:34.385Z,23.96
2017-04-29T04:25:34.390Z,23.96
2017-04-29T04:26:34.401Z,23.96
2017-04-29T04:27:34.408Z,24.15
2017-04-29T04:28:34.409Z,24.05
2017-04-29T04:29:34.459Z,24.05
2017-04-29T04:30:34.418Z,24.05
2017-04-29T04:31:34.426Z,23.96
2017-04-29T04:32:34.431Z,23.96
2017-04-29T04:33:34.130Z,23.86
2017-04-29T04:34:34.128Z,24.15
2017-04-29T04:35:34.493Z,23.86
2017-04-29T04:36:34.500Z,23.96
2017-04-29T04:37:34.459Z,23.76
2017-04-29T04:38:34.152Z,23.66
2017-04-29T04:39:34.466Z,23.66
2017-04-29T04:40:34.476Z,23.76
2017-04-29T04:41:34.530Z,23.57
2017-04-29T04:42:34.484Z,23.66
2017-04-29T04:43:34.490Z,23.47
2017-04-29T04:44:34.495Z,23.76
2017-04-29T04:45:34.498Z,23.28
2017-04-29T04:46:34.201Z,23.47
2017-04-29T04:47:34.561Z,23.66
2017-04-29T04:48:34.520Z,23.47
2017-04-29T04:49:34.522Z,23.28
2017-04-29T04:50:34.528Z,23.28
2017-04-29T04:51:34.219Z,23.28
2017-04-29T04:52:34.536Z,23.38
2017-04-29T04:53:34.234Z,23.66
2017-04-29T04:54:34.549Z,23.47
2017-04-29T04:55:34.553Z,23.47
2017-04-29T04:56:34.608Z,23.47
2017-04-29T04:57:34.568Z,23.38
2017-04-29T04:58:34.623Z,23.76
2017-04-29T04:59:34.577Z,23.66
2017-04-29T05:00:34.270Z,23.28
2017-04-29T05:01:34.614Z,23.38
2017-04-29T05:02:34.592Z,23.47
2017-04-29T05:03:34.290Z,23.38
2017-04-29T05:04:34.602Z,23.18
2017-04-29T05:05:34.607Z,23.28
2017-04-29T05:06:34.614Z,23.18
2017-04-29T05:07:34.622Z,23.28
2017-04-29T05:08:34.316Z,23.38
2017-04-29T05:09:34.374Z,23.28
2017-04-29T05:10:34.324Z,23.28
2017-04-29T05:11:34.379Z,23.18
2017-04-29T05:12:34.696Z,23.18
2017-04-29T05:13:34.702Z,23.38
2017-04-29T05:14:34.706Z,23.38
2017-04-29T05:15:34.664Z,23.38
2017-04-29T05:16:34.668Z,23.18
2017-04-29T05:17:34.681Z,22.99
2017-04-29T05:18:34.683Z,23.18
2017-04-29T05:19:34.688Z,23.29
2017-04-29T05:20:34.381Z,23.29
2017-04-29T05:21:34.696Z,23.39
2017-04-29T05:22:34.701Z,23.29
2017-04-29T05:23:34.712Z,23.19
2017-04-29T05:24:34.403Z,23.08
2017-04-29T05:25:34.722Z,23.18
2017-04-29T05:26:34.727Z,23
2017-04-29T05:27:34.732Z,23.08
2017-04-29T05:28:34.739Z,23.19
2017-04-29T05:29:34.484Z,23
2017-04-29T05:30:34.746Z,22.99
2017-04-29T05:31:34.441Z,23
2017-04-29T05:32:34.758Z,23.08
2017-04-29T05:33:34.766Z,23.28
2017-04-29T05:34:34.769Z,23.18
2017-04-29T05:35:34.775Z,23.29
2017-04-29T05:36:34.468Z,23.49
2017-04-29T05:37:34.524Z,23.29
2017-04-29T05:38:34.794Z,23.18
2017-04-29T05:39:34.795Z,23.29
2017-04-29T05:40:34.855Z,23.28
2017-04-29T05:41:34.808Z,23.19
2017-04-29T05:42:34.502Z,23.38
2017-04-29T05:43:34.832Z,23.38
2017-04-29T05:44:34.870Z,23.39
2017-04-29T05:45:34.837Z,23.29
2017-04-29T05:46:34.839Z,23.18
2017-04-29T05:47:34.844Z,23.29
2017-04-29T05:48:34.593Z,23.29
2017-04-29T05:49:34.859Z,23.29
2017-04-29T05:50:34.550Z,23.19
2017-04-29T05:51:34.554Z,23.49
2017-04-29T05:52:34.612Z,23.19
2017-04-29T05:53:34.880Z,23.29
2017-04-29T05:54:34.885Z,23.29
2017-04-29T05:55:34.889Z,23.28
2017-04-29T05:56:34.943Z,22.99
2017-04-29T05:57:34.901Z,22.99
2017-04-29T05:58:34.911Z,22.99
2017-04-29T05:59:34.916Z,23.18
2017-04-29T06:00:34.915Z,22.99
2017-04-29T06:01:34.612Z,23.38
2017-04-29T06:02:34.615Z,23.68
2017-04-29T06:03:34.624Z,23.38
2017-04-29T06:04:34.941Z,23.28
2017-04-29T06:05:34.947Z,22.99
2017-04-29T06:06:34.954Z,23.08
2017-04-29T06:07:35.006Z,23.18
2017-04-29T06:08:34.963Z,22.99
2017-04-29T06:09:34.970Z,23.18
2017-04-29T06:10:34.980Z,23.19
2017-04-29T06:11:34.970Z,23.38
2017-04-29T06:12:34.727Z,23.57
2017-04-29T06:13:34.993Z,23.57
2017-04-29T06:14:34.998Z,23.28
2017-04-29T06:15:35.001Z,23.76
2017-04-29T06:16:35.059Z,23.28
2017-04-29T06:17:35.065Z,23.66
2017-04-29T06:18:35.067Z,23.86
2017-04-29T06:19:35.036Z,23.96
2017-04-29T06:20:35.031Z,23.28
2017-04-29T06:21:35.389Z,23.57
2017-04-29T06:22:35.043Z,23.08
2017-04-29T06:23:35.051Z,20.78
2017-04-29T06:24:35.055Z,20.04
2017-04-29T06:25:35.060Z,16.98
2017-04-29T06:26:35.066Z,15.94
2017-04-29T06:27:35.077Z,15.96
2017-04-29T06:28:35.087Z,15.56
2017-04-29T06:29:35.087Z,14.7
2017-04-29T06:30:34.781Z,14.52
2017-04-29T06:31:35.149Z,14.53
2017-04-29T06:32:35.110Z,14.33
2017-04-29T06:33:35.115Z,14.53
2017-04-29T06:34:35.123Z,14.33
2017-04-29T06:35:35.129Z,14.33
2017-04-29T06:36:35.185Z,14.43
2017-04-29T06:37:35.225Z,13.75
2017-04-29T06:38:35.152Z,13.95
2017-04-29T06:39:34.851Z,13.56
2017-04-29T06:40:35.173Z,13.66
2017-04-29T06:41:34.868Z,13.46
2017-04-29T06:42:35.186Z,13.17
2017-04-29T06:43:35.195Z,13.48
2017-04-29T06:44:35.202Z,13.29
2017-04-29T06:45:35.260Z,13.39
2017-04-29T06:46:35.220Z,13.48
2017-04-29T06:47:34.917Z,13.29
2017-04-29T06:48:35.536Z,13.19
2017-04-29T06:49:35.243Z,12.8
2017-04-29T06:50:35.259Z,12.61
2017-04-29T06:51:35.264Z,12.61
2017-04-29T06:52:35.277Z,12.51
2017-04-29T06:53:35.282Z,12.71
2017-04-29T06:54:35.341Z,12.71
2017-04-29T06:55:35.303Z,12.71
2017-04-29T06:56:35.316Z,12.41
2017-04-29T06:57:35.317Z,12.41
2017-04-29T06:58:35.329Z,12.32
2017-04-29T06:59:35.334Z,12.32
2017-04-29T07:00:35.345Z,12.62
2017-04-29T07:01:35.405Z,12.32
2017-04-29T07:02:35.363Z,12.62
2017-04-29T07:03:35.425Z,12.41
2017-04-29T07:04:35.385Z,12.52
2017-04-29T07:05:35.395Z,12.32
2017-04-29T07:06:35.401Z,12.32
2017-04-29T07:07:35.153Z,12.52
2017-04-29T07:08:35.431Z,11.83
2017-04-29T07:09:35.429Z,12.03
2017-04-29T07:10:35.443Z,12.52
2017-04-29T07:11:35.457Z,12.71
2017-04-29T07:12:35.205Z,13.01
2017-04-29T07:13:35.471Z,14.07
2017-04-29T07:14:35.220Z,15.7
2017-04-29T07:15:35.487Z,17.31
2017-04-29T07:16:35.497Z,18.65
2017-04-29T07:17:35.804Z,19.11
2017-04-29T07:18:35.515Z,19.49
2017-04-29T07:19:35.523Z,19.87
2017-04-29T07:20:35.559Z,19.87
2017-04-29T07:21:35.589Z,19.96
2017-04-29T07:22:35.238Z,20.64
2017-04-29T07:23:35.557Z,20.64
2017-04-29T07:24:35.575Z,20.82
2017-04-29T07:25:35.261Z,20.82
2017-04-29T07:26:35.581Z,20.92
2017-04-29T07:27:35.586Z,20.82
2017-04-29T07:28:35.285Z,21.01
2017-04-29T07:29:35.601Z,21.68
2017-04-29T07:30:35.614Z,21.39
2017-04-29T07:31:35.356Z,21.68
2017-04-29T07:32:35.317Z,21.97
2017-04-29T07:33:35.689Z,22.26
2017-04-29T07:34:35.639Z,22.06
2017-04-29T07:35:35.647Z,22.16
2017-04-29T07:36:35.342Z,21.96
2017-04-29T07:37:35.664Z,22.63
2017-04-29T07:38:35.669Z,22.63
2017-04-29T07:39:35.677Z,23.01
2017-04-29T07:40:35.737Z,23.11
2017-04-29T07:41:35.693Z,23.01
2017-04-29T07:42:35.698Z,23
2017-04-29T07:43:35.754Z,23
2017-04-29T07:44:35.401Z,23
2017-04-29T07:45:35.415Z,23.1
2017-04-29T07:46:35.775Z,23.29
2017-04-29T07:47:35.732Z,23.29
2017-04-29T07:48:35.738Z,23.19
2017-04-29T07:49:35.793Z,23.29
2017-04-29T07:50:35.751Z,23.1
2017-04-29T07:51:35.757Z,23
2017-04-29T07:52:35.812Z,22.91
2017-04-29T07:53:35.510Z,23.01
2017-04-29T07:54:35.775Z,22.14
2017-04-29T07:55:35.789Z,21.85
2017-04-29T07:56:35.789Z,22.16
2017-04-29T07:57:35.534Z,21.77
2017-04-29T07:58:35.492Z,21.86
2017-04-29T07:59:35.807Z,21.67
2017-04-29T08:00:35.503Z,21.39
2017-04-29T08:01:35.872Z,21.3
2017-04-29T08:02:35.828Z,21
2017-04-29T08:03:35.836Z,20.71
2017-04-29T08:04:35.888Z,21.3
2017-04-29T08:05:35.848Z,21.3
2017-04-29T08:06:35.853Z,21.39
2017-04-29T08:07:35.862Z,21.39
2017-04-29T08:08:35.863Z,21.2
2017-04-29T08:09:35.924Z,20.71
2017-04-29T08:10:35.615Z,21.2
2017-04-29T08:11:35.934Z,20.71
2017-04-29T08:12:35.889Z,21.2
2017-04-29T08:13:35.585Z,21.68
2017-04-29T08:14:35.901Z,21.48
2017-04-29T08:15:35.907Z,21.39
2017-04-29T08:16:35.921Z,21.39
2017-04-29T08:17:35.920Z,21.39
2017-04-29T08:18:35.929Z,21.58
2017-04-29T08:19:35.921Z,21.48
2017-04-29T08:20:35.935Z,21.2
2017-04-29T08:21:35.942Z,21.68
2017-04-29T08:22:35.948Z,21.58
2017-04-29T08:23:36.005Z,21.2
2017-04-29T08:24:35.961Z,21.3
2017-04-29T08:25:35.971Z,21.1
2017-04-29T08:26:35.973Z,21
2017-04-29T08:27:35.980Z,21
2017-04-29T08:28:36.036Z,20.71
2017-04-29T08:29:35.991Z,20.9
2017-04-29T08:30:35.996Z,20.9
2017-04-29T08:31:35.690Z,21.3
2017-04-29T08:32:36.011Z,21.2
2017-04-29T08:33:36.016Z,21.48
2017-04-29T08:34:36.068Z,21.3
2017-04-29T08:35:36.028Z,21.2
2017-04-29T08:36:36.034Z,21.48
2017-04-29T08:37:36.037Z,21.58
2017-04-29T08:38:35.785Z,21.39
2017-04-29T08:39:35.741Z,21.48
2017-04-29T08:40:36.057Z,21.39
2017-04-29T08:41:36.062Z,21.58
2017-04-29T08:42:36.071Z,21.48
2017-04-29T08:43:36.076Z,21.68
2017-04-29T08:44:36.081Z,21.68
2017-04-29T08:45:36.090Z,21.68
2017-04-29T08:46:36.095Z,21.68
2017-04-29T08:47:36.102Z,21.58
2017-04-29T08:48:36.144Z,21.78
2017-04-29T08:49:36.117Z,21.58
2017-04-29T08:50:36.117Z,21.77
2017-04-29T08:51:36.123Z,21.68
2017-04-29T08:52:36.212Z,21.78
2017-04-29T08:53:36.133Z,21.68
2017-04-29T08:54:36.190Z,21.88
2017-04-29T08:55:36.196Z,21.77
2017-04-29T08:56:36.203Z,21.86
2017-04-29T08:57:36.158Z,22.26
2017-04-29T08:58:35.910Z,21.67
2017-04-29T08:59:36.171Z,21.77
2017-04-29T09:00:36.176Z,21.96
2017-04-29T09:01:36.181Z,21.86
2017-04-29T09:02:35.932Z,21.86
2017-04-29T09:03:36.195Z,22.16
2017-04-29T09:04:36.201Z,22.06
2017-04-29T09:05:36.208Z,22.06
2017-04-29T09:06:36.261Z,22.16
2017-04-29T09:07:36.218Z,22.06
2017-04-29T09:08:36.275Z,21.96
2017-04-29T09:09:35.923Z,22.06
2017-04-29T09:10:36.237Z,21.96
2017-04-29T09:11:36.241Z,21.86
2017-04-29T09:12:36.253Z,21.86
2017-04-29T09:13:36.257Z,22.06
2017-04-29T09:14:35.952Z,21.86
2017-04-29T09:15:36.267Z,21.67
2017-04-29T09:16:35.968Z,21.57
2017-04-29T09:17:36.279Z,21.68
2017-04-29T09:18:36.287Z,21.58
2017-04-29T09:19:36.291Z,21.57
2017-04-29T09:20:36.650Z,21.67
2017-04-29T09:21:36.047Z,21.68
2017-04-29T09:22:36.309Z,21.67
2017-04-29T09:23:36.325Z,21.58
2017-04-29T09:24:36.325Z,21.78
2017-04-29T09:25:36.336Z,21.68
2017-04-29T09:26:36.026Z,21.68
2017-04-29T09:27:36.342Z,21.68
2017-04-29T09:28:36.350Z,21.78
2017-04-29T09:29:36.099Z,21.68
2017-04-29T09:30:36.412Z,22.06
2017-04-29T09:31:36.368Z,21.97
2017-04-29T09:32:36.378Z,21.86
2017-04-29T09:33:36.384Z,21.78
2017-04-29T09:34:36.436Z,22.16
2017-04-29T09:35:36.130Z,21.77
2017-04-29T09:36:36.397Z,22.16
2017-04-29T09:37:36.405Z,22.06
2017-04-29T09:38:36.149Z,22.34
2017-04-29T09:39:36.106Z,21.85
2017-04-29T09:40:36.422Z,22.05
2017-04-29T09:41:36.428Z,22.06
2017-04-29T09:42:36.435Z,21.96
2017-04-29T09:43:36.498Z,21.95
2017-04-29T09:44:36.447Z,22.05
2017-04-29T09:45:36.449Z,21.95
2017-04-29T09:46:36.506Z,21.75
2017-04-29T09:47:36.467Z,22.05
2017-04-29T09:48:36.473Z,21.86
2017-04-29T09:49:36.476Z,21.95
2017-04-29T09:50:36.481Z,21.95
2017-04-29T09:51:36.177Z,21.96
2017-04-29T09:52:36.545Z,22.06
2017-04-29T09:53:36.500Z,21.95
2017-04-29T09:54:36.507Z,22.06
2017-04-29T09:55:36.560Z,22.05
2017-04-29T09:56:36.212Z,22.05
2017-04-29T09:57:36.526Z,21.95
2017-04-29T09:58:36.268Z,22.16
2017-04-29T09:59:36.589Z,21.95
2017-04-29T10:00:36.543Z,21.95
2017-04-29T10:01:36.547Z,21.96
2017-04-29T10:02:36.553Z,22.06
2017-04-29T10:03:36.615Z,22.06
2017-04-29T10:04:36.567Z,22.06
2017-04-29T10:05:36.569Z,22.14
2017-04-29T10:06:36.268Z,21.86
2017-04-29T10:07:36.583Z,22.16
2017-04-29T10:08:36.589Z,21.95
2017-04-29T10:09:36.595Z,22.06
2017-04-29T10:10:36.601Z,22.06
2017-04-29T10:11:36.607Z,22.16
2017-04-29T10:12:36.619Z,22.16
2017-04-29T10:13:36.622Z,22.16
2017-04-29T10:14:36.626Z,22.16
2017-04-29T10:15:36.370Z,21.86
2017-04-29T10:16:36.636Z,21.96
2017-04-29T10:17:36.651Z,22.25
2017-04-29T10:18:36.657Z,21.86
2017-04-29T10:19:36.655Z,21.67
2017-04-29T10:20:36.661Z,21.68
2017-04-29T10:21:36.357Z,21.78
2017-04-29T10:22:36.675Z,21.78
2017-04-29T10:23:36.680Z,22.06
2017-04-29T10:24:36.687Z,21.86
2017-04-29T10:25:36.691Z,21.77
2017-04-29T10:26:36.388Z,22.16
2017-04-29T10:27:36.704Z,21.97
2017-04-29T10:28:36.712Z,21.96
2017-04-29T10:29:36.718Z,21.96
2017-04-29T10:30:36.721Z,22.16
2017-04-29T10:31:36.728Z,22.34
2017-04-29T10:32:36.736Z,22.16
2017-04-29T10:33:36.742Z,21.96
2017-04-29T10:34:36.747Z,21.67
2017-04-29T10:35:36.752Z,21.86
2017-04-29T10:36:36.760Z,21.77
2017-04-29T10:37:36.768Z,21.77
2017-04-29T10:38:36.821Z,21.96
2017-04-29T10:39:36.830Z,22.06
2017-04-29T10:40:36.791Z,22.06
2017-04-29T10:41:36.841Z,22.16
2017-04-29T10:42:36.804Z,22.06
2017-04-29T10:43:36.804Z,22.06
2017-04-29T10:44:36.808Z,22.06
2017-04-29T10:45:36.814Z,21.96
2017-04-29T10:46:36.820Z,22.33
2017-04-29T10:47:36.518Z,22.24
2017-04-29T10:48:36.833Z,22.24
2017-04-29T10:49:36.838Z,22.33
2017-04-29T10:50:36.844Z,22.33
2017-04-29T10:51:36.855Z,22.24
2017-04-29T10:52:36.859Z,22.34
2017-04-29T10:53:36.915Z,22.14
2017-04-29T10:54:36.871Z,22.24
2017-04-29T10:55:36.875Z,22.16
2017-04-29T10:56:36.983Z,22.24
2017-04-29T10:57:37.238Z,22.34
2017-04-29T10:58:36.894Z,22.34
2017-04-29T10:59:36.950Z,22.25
2017-04-29T11:00:36.904Z,22.16
2017-04-29T11:01:37.014Z,22.25
2017-04-29T11:02:36.919Z,22.54
2017-04-29T11:03:36.675Z,22.83
2017-04-29T11:04:36.926Z,22.92
2017-04-29T11:05:36.933Z,22.64
2017-04-29T11:06:36.941Z,22.54
2017-04-29T11:07:36.945Z,22.34
2017-04-29T11:08:36.951Z,22.34
2017-04-29T11:09:36.960Z,22.34
2017-04-29T11:10:36.962Z,22.25
2017-04-29T11:11:36.970Z,22.54
2017-04-29T11:12:36.976Z,22.06
2017-04-29T11:13:36.981Z,22.06
2017-04-29T11:14:36.989Z,22.06
2017-04-29T11:15:36.995Z,22.36
2017-04-29T11:16:37.050Z,22.65
2017-04-29T11:17:37.007Z,22.45
2017-04-29T11:18:36.702Z,22.26
2017-04-29T11:19:36.758Z,22.26
2017-04-29T11:20:37.077Z,22.16
2017-04-29T11:21:37.030Z,22.55
2017-04-29T11:22:37.040Z,22.55
2017-04-29T11:23:37.044Z,22.36
2017-04-29T11:24:36.791Z,22.26
2017-04-29T11:25:37.057Z,22.92
2017-04-29T11:26:37.061Z,22.64
2017-04-29T11:27:37.071Z,22.92
2017-04-29T11:28:36.767Z,22.92
2017-04-29T11:29:37.080Z,23.12
2017-04-29T11:30:36.776Z,23.12
2017-04-29T11:31:37.093Z,23.02
2017-04-29T11:32:37.099Z,22.92
2017-04-29T11:33:37.104Z,23.02
2017-04-29T11:34:37.118Z,22.92
2017-04-29T11:35:37.119Z,23.12
2017-04-29T11:36:37.125Z,23.12
2017-04-29T11:37:37.133Z,22.92
2017-04-29T11:38:37.137Z,23.13
2017-04-29T11:39:37.146Z,22.92
2017-04-29T11:40:37.155Z,23.12
2017-04-29T11:41:37.156Z,22.92
2017-04-29T11:42:37.163Z,22.83
2017-04-29T11:43:37.221Z,22.83
2017-04-29T11:44:36.865Z,22.92
2017-04-29T11:45:37.180Z,22.83
2017-04-29T11:46:37.238Z,22.92
2017-04-29T11:47:37.193Z,23.22
2017-04-29T11:48:36.888Z,23.02
2017-04-29T11:49:37.207Z,23.02
2017-04-29T11:50:37.212Z,23.02
2017-04-29T11:51:37.215Z,23.12
2017-04-29T11:52:37.221Z,22.94
2017-04-29T11:53:37.232Z,22.94
2017-04-29T11:54:37.237Z,23.03
2017-04-29T11:55:37.252Z,22.74
2017-04-29T11:56:37.350Z,22.84
2017-04-29T11:57:37.259Z,23.13
2017-04-29T11:58:37.262Z,23.03
2017-04-29T11:59:37.269Z,22.94
2017-04-29T12:00:37.274Z,22.84
2017-04-29T12:01:37.278Z,23.03
2017-04-29T12:02:37.389Z,23.03
2017-04-29T12:03:37.293Z,22.94
2017-04-29T12:04:37.298Z,22.94
2017-04-29T12:05:36.993Z,23.03
2017-04-29T12:06:37.311Z,23.13
2017-04-29T12:07:37.318Z,23.23
2017-04-29T12:08:37.334Z,23.52
2017-04-29T12:09:37.331Z,23.41
2017-04-29T12:10:37.333Z,23.03
2017-04-29T12:11:37.343Z,23.13
2017-04-29T12:12:37.400Z,23.71
2017-04-29T12:13:37.080Z,23.42
2017-04-29T12:14:37.357Z,23.23
2017-04-29T12:15:37.368Z,23.02
2017-04-29T12:16:37.373Z,22.92
2017-04-29T12:17:37.426Z,23.32
2017-04-29T12:18:37.389Z,23.22
2017-04-29T12:19:37.391Z,23.5
2017-04-29T12:20:37.396Z,23.13
2017-04-29T12:21:37.403Z,23.23
2017-04-29T12:22:37.464Z,23.12
2017-04-29T12:23:37.450Z,23.23
2017-04-29T12:24:37.111Z,23.22
2017-04-29T12:25:37.428Z,23.12
2017-04-29T12:26:37.436Z,23.99
2017-04-29T12:27:37.441Z,23.12
2017-04-29T12:28:37.447Z,23.22
2017-04-29T12:29:37.454Z,23.02
2017-04-29T12:30:37.198Z,23.22
2017-04-29T12:31:37.515Z,23.7
2017-04-29T12:32:37.471Z,23.32
2017-04-29T12:33:37.478Z,23.41
2017-04-29T12:34:37.488Z,23.99
2017-04-29T12:35:37.490Z,24.28
2017-04-29T12:36:37.495Z,23.99
2017-04-29T12:37:37.505Z,24.38
2017-04-29T12:38:37.518Z,24.18
2017-04-29T12:39:37.567Z,24.17
2017-04-29T12:40:37.573Z,24.48
2017-04-29T12:41:37.580Z,24.38
2017-04-29T12:42:37.538Z,24.28
2017-04-29T12:43:37.544Z,24.18
2017-04-29T12:44:37.599Z,24.28
2017-04-29T12:45:37.554Z,24.38
2017-04-29T12:46:37.558Z,24.28
2017-04-29T12:47:37.603Z,24.38
2017-04-29T12:48:37.262Z,24.48
2017-04-29T12:49:37.615Z,24.38
2017-04-29T12:50:37.583Z,24.48
2017-04-29T12:51:37.280Z,24.48
2017-04-29T12:52:37.602Z,24.48
2017-04-29T12:53:37.655Z,24.57
2017-04-29T12:54:37.610Z,24.09
2017-04-29T12:55:37.616Z,24.38